sensor_id;sensor_type;location;lat;lon;timestamp;pressure;altitude;pressure_sealevel;temperature;humidity
8061;BME280;4073;42.626;25.386;2023-04-09T00:01:53;97582.59;;;8.14;93.08
8061;BME280;4073;42.626;25.386;2023-04-09T00:04:19;97575.56;;;8.07;93.28
8061;BME280;4073;42.626;25.386;2023-04-09T00:06:44;97578.47;;;8.06;93.76
8061;BME280;4073;42.626;25.386;2023-04-09T00:09:09;97587.75;;;8.03;93.91
8061;BME280;4073;42.626;25.386;2023-04-09T00:11:35;97585.34;;;8.02;94.95
8061;BME280;4073;42.626;25.386;2023-04-09T00:14:00;97587.19;;;8.01;95.02
8061;BME280;4073;42.626;25.386;2023-04-09T00:16:26;97584.53;;;8.01;95.26
8061;BME280;4073;42.626;25.386;2023-04-09T00:18:51;97579.44;;;8.00;95.02
8061;BME280;4073;42.626;25.386;2023-04-09T00:21:17;97581.56;;;7.98;95.29
8061;BME280;4073;42.626;25.386;2023-04-09T00:23:42;97583.97;;;7.99;95.30
8061;BME280;4073;42.626;25.386;2023-04-09T00:26:08;97583.41;;;7.97;95.56
8061;BME280;4073;42.626;25.386;2023-04-09T00:28:34;97584.78;;;8.00;95.49
8061;BME280;4073;42.626;25.386;2023-04-09T00:31:00;97590.38;;;7.98;95.47
8061;BME280;4073;42.626;25.386;2023-04-09T00:33:26;97585.53;;;7.95;95.46
8061;BME280;4073;42.626;25.386;2023-04-09T00:35:51;97588.97;;;7.96;95.58
8061;BME280;4073;42.626;25.386;2023-04-09T00:38:17;97583.34;;;7.92;96.09
8061;BME280;4073;42.626;25.386;2023-04-09T00:40:42;97557.75;;;7.70;95.85
8061;BME280;4073;42.626;25.386;2023-04-09T00:43:08;97587.47;;;7.83;96.42
8061;BME280;4073;42.626;25.386;2023-04-09T00:45:34;97586.25;;;7.74;96.03
8061;BME280;4073;42.626;25.386;2023-04-09T00:48:00;97583.47;;;7.64;95.82
8061;BME280;4073;42.626;25.386;2023-04-09T00:50:26;97588.22;;;7.62;95.99
8061;BME280;4073;42.626;25.386;2023-04-09T00:52:51;97585.97;;;7.54;96.16
8061;BME280;4073;42.626;25.386;2023-04-09T00:55:17;97589.66;;;7.53;96.43
8061;BME280;4073;42.626;25.386;2023-04-09T00:57:43;97594.91;;;7.48;96.78
8061;BME280;4073;42.626;25.386;2023-04-09T01:00:09;97586.28;;;7.41;97.02
8061;BME280;4073;42.626;25.386;2023-04-09T01:02:36;97581.59;;;7.32;97.52
8061;BME280;4073;42.626;25.386;2023-04-09T01:05:02;97585.06;;;7.32;97.55
8061;BME280;4073;42.626;25.386;2023-04-09T01:08:25;97584.19;;;7.27;98.04
8061;BME280;4073;42.626;25.386;2023-04-09T01:10:44;97583.59;;;7.25;98.86
8061;BME280;4073;42.626;25.386;2023-04-09T01:13:28;97575.53;;;7.20;99.01
8061;BME280;4073;42.626;25.386;2023-04-09T01:15:58;97577.63;;;7.18;99.43
8061;BME280;4073;42.626;25.386;2023-04-09T01:18:50;97583.75;;;7.18;100.00
8061;BME280;4073;42.626;25.386;2023-04-09T01:21:20;97570.06;;;7.10;100.00
8061;BME280;4073;42.626;25.386;2023-04-09T01:29:12;97584.94;;;7.11;100.00
8061;BME280;4073;42.626;25.386;2023-04-09T01:31:41;97580.09;;;7.08;100.00
8061;BME280;4073;42.626;25.386;2023-04-09T01:34:09;97558.81;;;6.91;100.00
8061;BME280;4073;42.626;25.386;2023-04-09T01:36:36;97572.19;;;6.96;100.00
8061;BME280;4073;42.626;25.386;2023-04-09T01:39:04;97585.75;;;6.95;100.00
8061;BME280;4073;42.626;25.386;2023-04-09T01:41:31;97572.34;;;6.90;100.00
8061;BME280;4073;42.626;25.386;2023-04-09T01:43:58;97578.13;;;6.87;100.00
8061;BME280;4073;42.626;25.386;2023-04-09T01:46:26;97583.84;;;6.79;100.00
8061;BME280;4073;42.626;25.386;2023-04-09T01:48:51;97584.91;;;6.78;100.00
8061;BME280;4073;42.626;25.386;2023-04-09T01:51:18;97581.22;;;6.67;100.00
8061;BME280;4073;42.626;25.386;2023-04-09T01:53:43;97576.69;;;6.40;100.00
8061;BME280;4073;42.626;25.386;2023-04-09T01:56:09;97582.91;;;6.45;100.00
8061;BME280;4073;42.626;25.386;2023-04-09T01:58:34;97576.22;;;6.43;100.00
8061;BME280;4073;42.626;25.386;2023-04-09T02:01:14;97574.84;;;6.40;100.00
8061;BME280;4073;42.626;25.386;2023-04-09T02:04:02;97577.28;;;6.30;100.00
8061;BME280;4073;42.626;25.386;2023-04-09T02:09:08;97573.16;;;6.23;100.00
8061;BME280;4073;42.626;25.386;2023-04-09T02:11:40;97571.69;;;6.04;100.00
8061;BME280;4073;42.626;25.386;2023-04-09T02:14:06;97577.25;;;6.02;100.00
8061;BME280;4073;42.626;25.386;2023-04-09T02:16:33;97565.34;;;5.93;100.00
8061;BME280;4073;42.626;25.386;2023-04-09T02:19:00;97579.53;;;5.99;100.00
8061;BME280;4073;42.626;25.386;2023-04-09T02:21:26;97577.56;;;6.06;100.00
8061;BME280;4073;42.626;25.386;2023-04-09T02:23:53;97581.50;;;6.03;100.00
8061;BME280;4073;42.626;25.386;2023-04-09T02:26:20;97577.13;;;5.97;100.00
8061;BME280;4073;42.626;25.386;2023-04-09T02:28:45;97550.81;;;5.84;100.00
8061;BME280;4073;42.626;25.386;2023-04-09T02:31:10;97567.63;;;6.01;100.00
8061;BME280;4073;42.626;25.386;2023-04-09T02:33:36;97571.94;;;6.02;100.00
8061;BME280;4073;42.626;25.386;2023-04-09T02:36:01;97577.78;;;6.04;100.00
8061;BME280;4073;42.626;25.386;2023-04-09T02:38:27;97588.41;;;6.04;100.00
8061;BME280;4073;42.626;25.386;2023-04-09T02:40:52;97579.75;;;6.09;100.00
8061;BME280;4073;42.626;25.386;2023-04-09T02:43:18;97582.19;;;6.10;100.00
8061;BME280;4073;42.626;25.386;2023-04-09T02:45:43;97592.47;;;6.07;100.00
8061;BME280;4073;42.626;25.386;2023-04-09T02:48:08;97582.53;;;6.02;100.00
8061;BME280;4073;42.626;25.386;2023-04-09T02:50:34;97573.44;;;5.98;100.00
8061;BME280;4073;42.626;25.386;2023-04-09T02:52:59;97579.31;;;5.89;100.00
8061;BME280;4073;42.626;25.386;2023-04-09T02:55:25;97567.22;;;5.81;100.00
8061;BME280;4073;42.626;25.386;2023-04-09T02:57:50;97579.44;;;5.82;100.00
8061;BME280;4073;42.626;25.386;2023-04-09T03:00:16;97572.72;;;5.80;100.00
8061;BME280;4073;42.626;25.386;2023-04-09T03:02:41;97572.84;;;5.73;100.00
8061;BME280;4073;42.626;25.386;2023-04-09T03:05:07;97580.09;;;5.66;100.00
8061;BME280;4073;42.626;25.386;2023-04-09T03:07:32;97575.03;;;5.65;100.00
8061;BME280;4073;42.626;25.386;2023-04-09T03:09:58;97573.06;;;5.60;100.00
8061;BME280;4073;42.626;25.386;2023-04-09T03:12:23;97580.91;;;5.55;100.00
8061;BME280;4073;42.626;25.386;2023-04-09T03:14:48;97587.13;;;5.49;100.00
8061;BME280;4073;42.626;25.386;2023-04-09T03:17:14;97583.91;;;5.47;100.00
8061;BME280;4073;42.626;25.386;2023-04-09T03:19:39;97588.41;;;5.47;100.00
8061;BME280;4073;42.626;25.386;2023-04-09T03:22:05;97588.63;;;5.45;100.00
8061;BME280;4073;42.626;25.386;2023-04-09T03:24:31;97578.91;;;5.39;100.00
8061;BME280;4073;42.626;25.386;2023-04-09T03:26:57;97586.44;;;5.42;100.00
8061;BME280;4073;42.626;25.386;2023-04-09T03:29:22;97595.28;;;5.36;100.00
8061;BME280;4073;42.626;25.386;2023-04-09T03:31:48;97592.97;;;5.28;100.00
8061;BME280;4073;42.626;25.386;2023-04-09T03:34:13;97589.84;;;5.19;100.00
8061;BME280;4073;42.626;25.386;2023-04-09T03:36:39;97593.53;;;5.18;100.00
8061;BME280;4073;42.626;25.386;2023-04-09T03:39:04;97597.66;;;5.14;100.00
8061;BME280;4073;42.626;25.386;2023-04-09T03:41:30;97593.41;;;5.13;100.00
8061;BME280;4073;42.626;25.386;2023-04-09T03:43:55;97590.63;;;5.08;100.00
8061;BME280;4073;42.626;25.386;2023-04-09T03:46:21;97592.84;;;5.11;100.00
8061;BME280;4073;42.626;25.386;2023-04-09T03:48:46;97594.44;;;5.12;100.00
8061;BME280;4073;42.626;25.386;2023-04-09T03:51:13;97589.47;;;5.16;100.00
8061;BME280;4073;42.626;25.386;2023-04-09T03:53:39;97590.53;;;5.15;100.00
8061;BME280;4073;42.626;25.386;2023-04-09T03:56:05;97598.84;;;5.18;100.00
8061;BME280;4073;42.626;25.386;2023-04-09T03:58:30;97583.03;;;5.12;100.00
8061;BME280;4073;42.626;25.386;2023-04-09T04:00:56;97585.66;;;5.12;100.00
8061;BME280;4073;42.626;25.386;2023-04-09T04:03:21;97597.53;;;5.09;100.00
8061;BME280;4073;42.626;25.386;2023-04-09T04:05:47;97590.41;;;5.10;100.00
8061;BME280;4073;42.626;25.386;2023-04-09T04:08:12;97598.59;;;5.08;100.00
8061;BME280;4073;42.626;25.386;2023-04-09T04:10:38;97590.84;;;5.07;100.00
8061;BME280;4073;42.626;25.386;2023-04-09T04:13:05;97596.28;;;5.12;100.00
8061;BME280;4073;42.626;25.386;2023-04-09T04:15:30;97596.41;;;5.17;100.00
8061;BME280;4073;42.626;25.386;2023-04-09T04:17:56;97589.63;;;5.21;100.00
8061;BME280;4073;42.626;25.386;2023-04-09T04:20:21;97591.38;;;5.27;100.00
8061;BME280;4073;42.626;25.386;2023-04-09T04:22:47;97592.53;;;5.31;100.00
8061;BME280;4073;42.626;25.386;2023-04-09T04:25:12;97594.28;;;5.37;100.00
8061;BME280;4073;42.626;25.386;2023-04-09T04:27:41;97593.34;;;5.43;100.00
8061;BME280;4073;42.626;25.386;2023-04-09T04:30:07;97603.63;;;5.51;100.00
8061;BME280;4073;42.626;25.386;2023-04-09T04:32:33;97606.75;;;5.60;100.00
8061;BME280;4073;42.626;25.386;2023-04-09T04:34:58;97607.78;;;5.70;100.00
8061;BME280;4073;42.626;25.386;2023-04-09T04:37:24;97611.84;;;5.84;100.00
8061;BME280;4073;42.626;25.386;2023-04-09T04:39:49;97619.72;;;6.02;100.00
8061;BME280;4073;42.626;25.386;2023-04-09T04:42:15;97611.13;;;6.23;100.00
8061;BME280;4073;42.626;25.386;2023-04-09T04:44:41;97620.66;;;6.47;100.00
8061;BME280;4073;42.626;25.386;2023-04-09T04:47:07;97620.38;;;6.72;100.00
8061;BME280;4073;42.626;25.386;2023-04-09T04:49:32;97621.00;;;6.90;100.00
8061;BME280;4073;42.626;25.386;2023-04-09T04:51:58;97629.19;;;7.00;100.00
8061;BME280;4073;42.626;25.386;2023-04-09T04:54:23;97628.44;;;7.05;100.00
8061;BME280;4073;42.626;25.386;2023-04-09T04:56:49;97613.47;;;6.99;100.00
8061;BME280;4073;42.626;25.386;2023-04-09T04:59:14;97623.94;;;7.05;100.00
8061;BME280;4073;42.626;25.386;2023-04-09T05:01:39;97628.19;;;7.06;100.00
8061;BME280;4073;42.626;25.386;2023-04-09T05:04:05;97620.22;;;7.06;100.00
8061;BME280;4073;42.626;25.386;2023-04-09T05:06:30;97618.81;;;7.15;100.00
8061;BME280;4073;42.626;25.386;2023-04-09T05:08:56;97628.09;;;7.29;100.00
8061;BME280;4073;42.626;25.386;2023-04-09T05:11:23;97637.25;;;7.50;100.00
8061;BME280;4073;42.626;25.386;2023-04-09T05:13:49;97628.78;;;7.69;100.00
8061;BME280;4073;42.626;25.386;2023-04-09T05:16:16;97625.47;;;7.95;100.00
8061;BME280;4073;42.626;25.386;2023-04-09T05:18:42;97630.34;;;8.20;98.79
8061;BME280;4073;42.626;25.386;2023-04-09T05:21:07;97631.47;;;8.41;96.71
8061;BME280;4073;42.626;25.386;2023-04-09T05:23:33;97633.03;;;8.58;95.87
8061;BME280;4073;42.626;25.386;2023-04-09T05:25:58;97630.59;;;8.78;94.76
8061;BME280;4073;42.626;25.386;2023-04-09T05:28:24;97633.91;;;9.12;93.19
8061;BME280;4073;42.626;25.386;2023-04-09T05:30:49;97624.78;;;9.29;91.77
8061;BME280;4073;42.626;25.386;2023-04-09T05:33:15;97632.25;;;9.59;90.31
8061;BME280;4073;42.626;25.386;2023-04-09T05:35:40;97636.44;;;9.81;89.43
8061;BME280;4073;42.626;25.386;2023-04-09T05:38:06;97604.16;;;9.88;88.37
8061;BME280;4073;42.626;25.386;2023-04-09T05:40:31;97627.41;;;10.24;86.80
8061;BME280;4073;42.626;25.386;2023-04-09T05:42:57;97626.09;;;10.26;85.96
8061;BME280;4073;42.626;25.386;2023-04-09T05:45:22;97631.28;;;10.48;85.07
8061;BME280;4073;42.626;25.386;2023-04-09T05:47:48;97629.22;;;10.60;84.46
8061;BME280;4073;42.626;25.386;2023-04-09T05:50:13;97626.63;;;10.75;83.52
8061;BME280;4073;42.626;25.386;2023-04-09T05:52:38;97614.34;;;10.84;82.34
8061;BME280;4073;42.626;25.386;2023-04-09T05:55:04;97622.72;;;11.03;80.66
8061;BME280;4073;42.626;25.386;2023-04-09T05:57:31;97614.72;;;11.33;78.49
8061;BME280;4073;42.626;25.386;2023-04-09T05:59:57;97616.41;;;11.69;76.50
8061;BME280;4073;42.626;25.386;2023-04-09T06:02:23;97616.13;;;12.05;74.51
8061;BME280;4073;42.626;25.386;2023-04-09T06:04:49;97612.06;;;12.28;71.93
8061;BME280;4073;42.626;25.386;2023-04-09T06:07:15;97620.56;;;12.55;69.50
8061;BME280;4073;42.626;25.386;2023-04-09T06:09:40;97587.88;;;12.53;67.67
8061;BME280;4073;42.626;25.386;2023-04-09T06:12:08;97622.41;;;12.74;66.62
8061;BME280;4073;42.626;25.386;2023-04-09T06:14:33;97623.97;;;12.85;66.58
8061;BME280;4073;42.626;25.386;2023-04-09T06:16:59;97621.50;;;12.89;66.51
8061;BME280;4073;42.626;25.386;2023-04-09T06:19:24;97626.38;;;12.87;66.30
8061;BME280;4073;42.626;25.386;2023-04-09T06:21:50;97627.97;;;12.88;65.46
8061;BME280;4073;42.626;25.386;2023-04-09T06:24:15;97620.41;;;12.95;65.80
8061;BME280;4073;42.626;25.386;2023-04-09T06:26:41;97595.03;;;12.77;65.72
8061;BME280;4073;42.626;25.386;2023-04-09T06:29:06;97630.03;;;13.11;65.77
8061;BME280;4073;42.626;25.386;2023-04-09T06:31:32;97634.25;;;13.27;66.00
8061;BME280;4073;42.626;25.386;2023-04-09T06:33:57;97633.34;;;13.42;65.83
8061;BME280;4073;42.626;25.386;2023-04-09T06:36:23;97634.22;;;13.71;65.69
8061;BME280;4073;42.626;25.386;2023-04-09T06:38:49;97633.69;;;13.74;65.13
8061;BME280;4073;42.626;25.386;2023-04-09T06:41:14;97634.78;;;13.73;65.02
8061;BME280;4073;42.626;25.386;2023-04-09T06:43:40;97635.59;;;13.68;63.82
8061;BME280;4073;42.626;25.386;2023-04-09T06:46:06;97632.72;;;13.60;64.10
8061;BME280;4073;42.626;25.386;2023-04-09T06:48:31;97639.34;;;13.67;64.49
8061;BME280;4073;42.626;25.386;2023-04-09T06:50:57;97621.22;;;13.83;64.08
8061;BME280;4073;42.626;25.386;2023-04-09T06:53:22;97632.53;;;14.13;63.24
8061;BME280;4073;42.626;25.386;2023-04-09T06:55:48;97639.16;;;14.54;60.71
8061;BME280;4073;42.626;25.386;2023-04-09T06:58:13;97625.81;;;14.91;57.72
8061;BME280;4073;42.626;25.386;2023-04-09T07:00:39;97623.84;;;15.20;57.20
8061;BME280;4073;42.626;25.386;2023-04-09T07:03:05;97629.56;;;15.56;55.54
8061;BME280;4073;42.626;25.386;2023-04-09T07:05:33;97627.19;;;15.87;53.15
8061;BME280;4073;42.626;25.386;2023-04-09T07:07:58;97627.03;;;15.97;50.69
8061;BME280;4073;42.626;25.386;2023-04-09T07:10:24;97623.97;;;16.17;48.72
8061;BME280;4073;42.626;25.386;2023-04-09T07:12:49;97617.34;;;16.41;49.15
8061;BME280;4073;42.626;25.386;2023-04-09T07:15:15;97613.09;;;16.67;48.62
8061;BME280;4073;42.626;25.386;2023-04-09T07:17:40;97611.38;;;16.98;48.25
8061;BME280;4073;42.626;25.386;2023-04-09T07:20:06;97617.47;;;17.17;47.83
8061;BME280;4073;42.626;25.386;2023-04-09T07:22:31;97620.75;;;17.14;45.85
8061;BME280;4073;42.626;25.386;2023-04-09T07:24:57;97605.88;;;17.03;44.89
8061;BME280;4073;42.626;25.386;2023-04-09T07:27:24;97617.06;;;17.10;44.02
8061;BME280;4073;42.626;25.386;2023-04-09T07:29:49;97605.31;;;17.28;44.91
8061;BME280;4073;42.626;25.386;2023-04-09T07:32:15;97617.34;;;17.22;45.66
8061;BME280;4073;42.626;25.386;2023-04-09T07:34:42;97615.97;;;17.11;45.57
8061;BME280;4073;42.626;25.386;2023-04-09T07:37:08;97611.50;;;16.93;46.19
8061;BME280;4073;42.626;25.386;2023-04-09T07:39:34;97614.59;;;16.60;47.02
8061;BME280;4073;42.626;25.386;2023-04-09T07:42:03;97612.03;;;16.36;47.11
8061;BME280;4073;42.626;25.386;2023-04-09T07:44:29;97615.59;;;16.18;47.60
8061;BME280;4073;42.626;25.386;2023-04-09T07:46:57;97611.47;;;16.53;46.89
8061;BME280;4073;42.626;25.386;2023-04-09T07:49:23;97616.28;;;16.83;45.25
8061;BME280;4073;42.626;25.386;2023-04-09T07:54:33;97622.25;;;17.20;44.25
8061;BME280;4073;42.626;25.386;2023-04-09T07:56:59;97624.44;;;17.45;43.21
8061;BME280;4073;42.626;25.386;2023-04-09T07:59:25;97627.19;;;17.67;43.48
8061;BME280;4073;42.626;25.386;2023-04-09T08:01:52;97628.81;;;17.90;43.45
8061;BME280;4073;42.626;25.386;2023-04-09T08:04:18;97625.56;;;18.11;43.00
8061;BME280;4073;42.626;25.386;2023-04-09T08:06:43;97620.97;;;18.11;42.43
8061;BME280;4073;42.626;25.386;2023-04-09T08:09:14;97625.53;;;18.24;42.48
8061;BME280;4073;42.626;25.386;2023-04-09T08:11:40;97631.47;;;18.57;40.15
8061;BME280;4073;42.626;25.386;2023-04-09T08:14:05;97628.28;;;18.33;39.44
8061;BME280;4073;42.626;25.386;2023-04-09T08:16:43;97632.66;;;18.20;39.50
8061;BME280;4073;42.626;25.386;2023-04-09T08:19:10;97638.56;;;18.00;39.74
8061;BME280;4073;42.626;25.386;2023-04-09T08:21:36;97630.31;;;18.27;39.94
8061;BME280;4073;42.626;25.386;2023-04-09T08:24:03;97620.41;;;18.45;39.47
8061;BME280;4073;42.626;25.386;2023-04-09T08:26:29;97634.47;;;18.55;37.36
8061;BME280;4073;42.626;25.386;2023-04-09T08:28:55;97632.50;;;18.78;35.82
8061;BME280;4073;42.626;25.386;2023-04-09T08:31:21;97643.91;;;18.66;33.51
8061;BME280;4073;42.626;25.386;2023-04-09T08:33:46;97636.91;;;18.35;35.56
8061;BME280;4073;42.626;25.386;2023-04-09T08:36:11;97642.25;;;18.48;36.72
8061;BME280;4073;42.626;25.386;2023-04-09T08:38:37;97640.84;;;18.29;37.57
8061;BME280;4073;42.626;25.386;2023-04-09T08:41:03;97639.13;;;17.88;37.36
8061;BME280;4073;42.626;25.386;2023-04-09T08:43:31;97633.50;;;17.63;37.95
8061;BME280;4073;42.626;25.386;2023-04-09T08:45:56;97640.44;;;17.55;38.09
8061;BME280;4073;42.626;25.386;2023-04-09T08:48:24;97643.34;;;17.59;36.91
8061;BME280;4073;42.626;25.386;2023-04-09T08:50:50;97639.94;;;17.40;36.32
8061;BME280;4073;42.626;25.386;2023-04-09T08:53:16;97634.69;;;17.08;36.87
8061;BME280;4073;42.626;25.386;2023-04-09T08:55:44;97639.19;;;17.12;37.16
8061;BME280;4073;42.626;25.386;2023-04-09T08:58:11;97634.28;;;17.14;37.94
8061;BME280;4073;42.626;25.386;2023-04-09T09:00:36;97637.09;;;16.96;38.66
8061;BME280;4073;42.626;25.386;2023-04-09T09:03:05;97638.59;;;16.88;38.81
8061;BME280;4073;42.626;25.386;2023-04-09T09:05:40;97636.91;;;16.92;38.29
8061;BME280;4073;42.626;25.386;2023-04-09T09:08:10;97627.47;;;17.17;37.47
8061;BME280;4073;42.626;25.386;2023-04-09T09:13:15;97627.91;;;17.59;36.43
8061;BME280;4073;42.626;25.386;2023-04-09T09:15:41;97615.38;;;17.63;37.06
8061;BME280;4073;42.626;25.386;2023-04-09T09:18:06;97627.09;;;18.25;35.28
8061;BME280;4073;42.626;25.386;2023-04-09T09:20:32;97629.31;;;18.45;34.72
8061;BME280;4073;42.626;25.386;2023-04-09T09:22:57;97619.25;;;18.68;35.22
8061;BME280;4073;42.626;25.386;2023-04-09T09:25:24;97610.72;;;18.83;34.20
8061;BME280;4073;42.626;25.386;2023-04-09T09:27:51;97618.06;;;19.38;32.88
8061;BME280;4073;42.626;25.386;2023-04-09T09:30:24;97616.63;;;19.75;31.89
8061;BME280;4073;42.626;25.386;2023-04-09T09:35:29;97623.81;;;19.62;32.06
8061;BME280;4073;42.626;25.386;2023-04-09T09:38:02;97614.06;;;19.78;32.87
8061;BME280;4073;42.626;25.386;2023-04-09T09:40:30;97612.94;;;20.30;31.99
8061;BME280;4073;42.626;25.386;2023-04-09T09:42:56;97617.31;;;20.61;31.52
8061;BME280;4073;42.626;25.386;2023-04-09T09:45:22;97625.66;;;20.47;30.92
8061;BME280;4073;42.626;25.386;2023-04-09T09:47:48;97604.63;;;20.10;31.00
8061;BME280;4073;42.626;25.386;2023-04-09T09:50:14;97613.09;;;20.08;31.62
8061;BME280;4073;42.626;25.386;2023-04-09T09:52:41;97599.41;;;19.88;30.47
8061;BME280;4073;42.626;25.386;2023-04-09T09:55:12;97606.41;;;19.80;30.33
8061;BME280;4073;42.626;25.386;2023-04-09T09:57:41;97604.66;;;19.59;30.72
8061;BME280;4073;42.626;25.386;2023-04-09T10:00:11;97598.59;;;19.70;31.88
8061;BME280;4073;42.626;25.386;2023-04-09T10:02:49;97604.84;;;19.71;31.50
8061;BME280;4073;42.626;25.386;2023-04-09T10:05:17;97595.88;;;19.62;32.75
8061;BME280;4073;42.626;25.386;2023-04-09T10:07:46;97597.00;;;19.69;32.50
8061;BME280;4073;42.626;25.386;2023-04-09T10:10:13;97589.13;;;19.17;33.48
8061;BME280;4073;42.626;25.386;2023-04-09T10:12:39;97580.41;;;18.81;34.10
8061;BME280;4073;42.626;25.386;2023-04-09T10:15:06;97589.41;;;18.98;31.24
8061;BME280;4073;42.626;25.386;2023-04-09T10:17:33;97581.81;;;18.70;33.21
8061;BME280;4073;42.626;25.386;2023-04-09T10:20:26;97581.16;;;18.34;33.23
8061;BME280;4073;42.626;25.386;2023-04-09T10:22:54;97581.56;;;18.19;32.44
8061;BME280;4073;42.626;25.386;2023-04-09T10:25:21;97576.50;;;18.03;31.39
8061;BME280;4073;42.626;25.386;2023-04-09T10:27:58;97573.66;;;18.00;32.53
8061;BME280;4073;42.626;25.386;2023-04-09T10:30:34;97573.97;;;18.29;32.44
8061;BME280;4073;42.626;25.386;2023-04-09T10:33:12;97556.13;;;18.50;29.88
8061;BME280;4073;42.626;25.386;2023-04-09T10:35:38;97564.56;;;18.57;33.57
8061;BME280;4073;42.626;25.386;2023-04-09T10:38:07;97555.66;;;18.57;34.17
8061;BME280;4073;42.626;25.386;2023-04-09T10:40:34;97560.84;;;18.45;33.86
8061;BME280;4073;42.626;25.386;2023-04-09T10:43:01;97555.50;;;18.62;35.39
8061;BME280;4073;42.626;25.386;2023-04-09T10:45:39;97545.81;;;18.69;34.35
8061;BME280;4073;42.626;25.386;2023-04-09T10:48:10;97553.06;;;19.08;33.50
8061;BME280;4073;42.626;25.386;2023-04-09T10:50:37;97547.06;;;19.28;34.36
8061;BME280;4073;42.626;25.386;2023-04-09T10:53:03;97550.09;;;19.69;32.15
8061;BME280;4073;42.626;25.386;2023-04-09T10:55:29;97558.41;;;19.47;32.86
8061;BME280;4073;42.626;25.386;2023-04-09T10:57:56;97553.13;;;19.42;34.23
8061;BME280;4073;42.626;25.386;2023-04-09T11:00:22;97539.75;;;19.37;33.34
8061;BME280;4073;42.626;25.386;2023-04-09T11:03:05;97539.75;;;19.62;31.95
8061;BME280;4073;42.626;25.386;2023-04-09T11:05:38;97537.31;;;19.86;31.52
8061;BME280;4073;42.626;25.386;2023-04-09T11:08:08;97540.41;;;20.31;28.50
8061;BME280;4073;42.626;25.386;2023-04-09T11:10:34;97538.63;;;20.35;28.31
8061;BME280;4073;42.626;25.386;2023-04-09T11:13:00;97520.03;;;20.54;28.68
8061;BME280;4073;42.626;25.386;2023-04-09T11:15:26;97536.72;;;20.73;28.44
8061;BME280;4073;42.626;25.386;2023-04-09T11:17:52;97533.41;;;20.68;28.95
8061;BME280;4073;42.626;25.386;2023-04-09T11:20:23;97517.44;;;21.36;28.28
8061;BME280;4073;42.626;25.386;2023-04-09T11:22:50;97520.00;;;21.53;28.12
8061;BME280;4073;42.626;25.386;2023-04-09T11:25:27;97520.19;;;21.16;29.71
8061;BME280;4073;42.626;25.386;2023-04-09T11:27:52;97511.66;;;20.68;31.77
8061;BME280;4073;42.626;25.386;2023-04-09T11:30:19;97513.31;;;20.81;31.86
8061;BME280;4073;42.626;25.386;2023-04-09T11:32:45;97503.59;;;20.51;32.21
8061;BME280;4073;42.626;25.386;2023-04-09T11:35:15;97502.28;;;20.57;31.99
8061;BME280;4073;42.626;25.386;2023-04-09T11:37:42;97499.13;;;20.46;30.95
8061;BME280;4073;42.626;25.386;2023-04-09T11:40:16;97486.63;;;20.54;29.50
8061;BME280;4073;42.626;25.386;2023-04-09T11:42:43;97481.06;;;20.04;29.70
8061;BME280;4073;42.626;25.386;2023-04-09T11:45:10;97486.41;;;19.83;28.39
8061;BME280;4073;42.626;25.386;2023-04-09T11:47:38;97485.81;;;19.61;29.59
8061;BME280;4073;42.626;25.386;2023-04-09T11:50:06;97479.75;;;19.55;28.19
8061;BME280;4073;42.626;25.386;2023-04-09T11:52:32;97486.59;;;19.19;27.23
8061;BME280;4073;42.626;25.386;2023-04-09T11:55:00;97473.53;;;19.12;27.12
8061;BME280;4073;42.626;25.386;2023-04-09T11:57:43;97471.59;;;19.04;27.41
8061;BME280;4073;42.626;25.386;2023-04-09T12:00:10;97481.81;;;19.16;28.46
8061;BME280;4073;42.626;25.386;2023-04-09T12:02:44;97474.47;;;18.82;27.32
8061;BME280;4073;42.626;25.386;2023-04-09T12:05:24;97473.44;;;18.53;27.97
8061;BME280;4073;42.626;25.386;2023-04-09T12:07:51;97460.66;;;18.45;27.14
8061;BME280;4073;42.626;25.386;2023-04-09T12:10:30;97460.22;;;18.51;27.67
8061;BME280;4073;42.626;25.386;2023-04-09T12:13:05;97480.75;;;18.44;28.41
8061;BME280;4073;42.626;25.386;2023-04-09T12:15:33;97457.88;;;18.28;29.08
8061;BME280;4073;42.626;25.386;2023-04-09T12:17:59;97449.00;;;18.27;28.11
8061;BME280;4073;42.626;25.386;2023-04-09T12:20:30;97463.16;;;18.33;27.01
8061;BME280;4073;42.626;25.386;2023-04-09T12:22:56;97444.91;;;18.38;27.62
8061;BME280;4073;42.626;25.386;2023-04-09T12:25:22;97431.06;;;18.48;26.93
8061;BME280;4073;42.626;25.386;2023-04-09T12:27:48;97445.66;;;18.30;25.00
8061;BME280;4073;42.626;25.386;2023-04-09T12:30:13;97446.41;;;18.22;27.73
8061;BME280;4073;42.626;25.386;2023-04-09T12:32:39;97448.06;;;18.32;28.97
8061;BME280;4073;42.626;25.386;2023-04-09T12:35:04;97437.59;;;18.39;28.58
8061;BME280;4073;42.626;25.386;2023-04-09T12:37:30;97428.59;;;18.30;28.36
8061;BME280;4073;42.626;25.386;2023-04-09T12:39:55;97439.00;;;18.45;28.17
8061;BME280;4073;42.626;25.386;2023-04-09T12:42:21;97433.25;;;18.38;28.23
8061;BME280;4073;42.626;25.386;2023-04-09T12:44:46;97450.81;;;18.40;28.37
8061;BME280;4073;42.626;25.386;2023-04-09T12:47:12;97443.88;;;18.26;27.93
8061;BME280;4073;42.626;25.386;2023-04-09T12:49:37;97427.97;;;18.24;28.82
8061;BME280;4073;42.626;25.386;2023-04-09T12:52:03;97410.78;;;18.29;29.23
8061;BME280;4073;42.626;25.386;2023-04-09T12:54:28;97427.47;;;18.22;28.48
8061;BME280;4073;42.626;25.386;2023-04-09T12:56:54;97431.03;;;18.00;29.56
8061;BME280;4073;42.626;25.386;2023-04-09T12:59:20;97421.81;;;17.93;28.27
8061;BME280;4073;42.626;25.386;2023-04-09T13:01:45;97421.50;;;17.94;29.62
8061;BME280;4073;42.626;25.386;2023-04-09T13:04:11;97416.53;;;17.88;30.41
8061;BME280;4073;42.626;25.386;2023-04-09T13:06:36;97431.34;;;17.60;28.33
8061;BME280;4073;42.626;25.386;2023-04-09T13:09:02;97423.75;;;17.18;30.19
8061;BME280;4073;42.626;25.386;2023-04-09T13:11:27;97426.63;;;16.99;30.34
8061;BME280;4073;42.626;25.386;2023-04-09T13:13:52;97417.94;;;16.89;30.97
8061;BME280;4073;42.626;25.386;2023-04-09T13:16:18;97413.59;;;17.01;31.31
8061;BME280;4073;42.626;25.386;2023-04-09T13:18:43;97423.94;;;16.99;32.04
8061;BME280;4073;42.626;25.386;2023-04-09T13:21:09;97407.69;;;16.77;32.48
8061;BME280;4073;42.626;25.386;2023-04-09T13:23:34;97411.28;;;16.73;32.76
8061;BME280;4073;42.626;25.386;2023-04-09T13:26:00;97379.28;;;16.44;33.46
8061;BME280;4073;42.626;25.386;2023-04-09T13:28:25;97408.44;;;16.56;33.74